KPTN

Details ICAO KPTN
Name HARRY P WILLIAMS MEM
Region United States
Timezone America/Chicago (UTC-6.0)
Plans Departing 2
Arriving 2
Stats Elevation 8 ft / 2 m (AMSL)
Location 29.710819° -91.339713°
Runways 1
Magnetic Variation 0.009° W
Sunrise 2017-12-16 12:55:11 UTC / 2017-12-16 06:55:11 Local
Sunset 2017-12-16 23:09:48 UTC / 2017-12-16 17:09:48 Local
Advertisement - Login to hide

Runways

ID Width Length Bearing (true) Bearing (mag) Surface Threshold Offset Overrun Length
06 150 ft / 46 m 5,397 ft / 1,645 m 58.97° 58.98° Asphalt 394 ft / 120 m 0 ft / 0 m
24 150 ft / 46 m 5,397 ft / 1,645 m 238.98° 238.99° Asphalt 0 ft / 0 m 0 ft / 0 m

Approach Navaids

Runway Type Ident Frequency Range Bearing (true) Bearing (mag) Slope Elevation
24 Localiser IPTN 108.30 MHz 18 nm / 33 km 238.97° 238.98° - 8 ft / 2 m (AMSL)
24 Glidescope IPTN 108.30 MHz 10 nm / 19 km 238.97° 238.98° 3.00° 9 ft / 3 m (AMSL)
24 DME IPTN 108.30 MHz 18 nm / 33 km - - - 23 ft / 7 m (AMSL)

Map

Weather


0- 5 10 15 20 25 30 35+ Temperature / ° C

Clouds and Precipitation
Forecast for 2017-12-17 00:00 UTC. Updated 2 hours ago

Ground ~20,000 ft ~40,000 ft Winds

METAR

KPTN 162032Z AUTO 09009KT 10SM FEW021 15/05 A3016 RMK AO2

TAF

Not found

Frequencies

Recorded 134.57 MHz AWOS 3
Approach 124.30 MHz NEW ORLEANS APP/DEP
Unicom 122.80 MHz CTAF/UNICOM
Warning: Do not use this data for real-world aviation or navigation. No guarantee of current accuracy is given.